Time;durP1;ratioP1;P1;durP2;ratioP2;P2;SDS_P1;SDS_P2;PMS_P1;PMS_P2;Temp;Humidity;BMP_temperature;BMP_pressure;BME280_temperature;BME280_humidity;BME280_pressure;Samples;Min_cycle;Max_cycle;Signal;HPM_P1;HPM_P2
2022/07/05 00:04:03;;;;;;;10.13;4.07;;;;;13.70;101666.00;;;;10447901;28;20544;-77
2022/07/05 00:09:05;;;;;;;7.17;4.73;;;;;13.80;101666.00;;;;10464396;28;20193;-77
2022/07/05 00:14:07;;;;;;;6.07;4.57;;;;;13.80;101667.00;;;;10446779;28;20214;-77
2022/07/05 00:19:09;;;;;;;6.10;4.30;;;;;13.70;101666.00;;;;10480670;28;20216;-77
2022/07/05 00:24:11;;;;;;;7.33;3.60;;;;;13.70;101666.00;;;;10480592;28;20201;-77
2022/07/05 00:29:13;;;;;;;4.60;4.20;;;;;13.70;101667.00;;;;10480463;28;20197;-77
2022/07/05 00:34:15;;;;;;;9.87;4.70;;;;;13.60;101660.00;;;;10434073;28;20210;-76
2022/07/05 00:39:17;;;;;;;7.87;4.50;;;;;13.60;101658.00;;;;10421566;28;20205;-78
2022/07/05 00:44:34;;;;;;;6.00;3.80;;;;;13.50;101651.00;;;;10404575;28;20202;-77
2022/07/05 00:49:37;;;;;;;7.57;3.93;;;;;13.50;101656.00;;;;10439771;28;20284;-78
2022/07/05 00:54:39;;;;;;;5.60;3.60;;;;;13.40;101661.00;;;;10421937;28;20302;-78
2022/07/05 00:59:42;;;;;;;6.73;3.90;;;;;13.30;101664.00;;;;10405288;28;20264;-78
2022/07/05 01:04:44;;;;;;;6.90;3.70;;;;;13.10;101660.00;;;;10439515;28;20209;-77
2022/07/05 01:09:47;;;;;;;9.73;3.87;;;;;13.00;101663.00;;;;10462708;28;20186;-78
2022/07/05 01:14:50;;;;;;;5.83;3.17;;;;;13.00;101667.00;;;;10462894;28;20216;-77
2022/07/05 01:19:53;;;;;;;4.60;3.20;;;;;12.90;101658.00;;;;10428845;28;20298;-77
2022/07/05 01:24:55;;;;;;;5.33;3.77;;;;;12.70;101652.00;;;;10446699;28;20284;-78
2022/07/05 01:29:57;;;;;;;6.13;3.67;;;;;12.70;101649.00;;;;10462803;28;20219;-77
2022/07/05 01:34:59;;;;;;;6.73;3.63;;;;;12.70;101644.00;;;;10462031;28;20227;-77
2022/07/05 01:40:03;;;;;;;4.17;3.40;;;;;12.70;101640.00;;;;10446366;28;20197;-78
2022/07/05 01:45:06;;;;;;;5.57;3.50;;;;;12.70;101642.00;;;;10444840;28;20198;-78
2022/07/05 01:50:09;;;;;;;4.43;4.03;;;;;12.60;101643.00;;;;10453649;28;20205;-77
2022/07/05 01:55:11;;;;;;;7.73;3.93;;;;;12.50;101655.00;;;;10477593;28;20301;-77
2022/07/05 02:00:13;;;;;;;6.07;3.83;;;;;12.40;101649.00;;;;10478530;28;20248;-77
2022/07/05 02:05:15;;;;;;;6.23;3.80;;;;;12.40;101650.00;;;;10429285;28;20198;-78
2022/07/05 02:10:18;;;;;;;6.30;4.03;;;;;12.40;101646.00;;;;10404225;28;20195;-77
2022/07/05 02:15:20;;;;;;;7.33;4.60;;;;;12.40;101647.00;;;;10419973;28;20280;-77
2022/07/05 02:20:22;;;;;;;4.23;3.60;;;;;12.30;101655.00;;;;10419612;28;20198;-77
2022/07/05 02:25:25;;;;;;;5.93;3.90;;;;;12.20;101645.00;;;;10418999;28;20202;-77
2022/07/05 02:30:30;;;;;;;4.50;4.10;;;;;12.20;101648.00;;;;10435809;28;20185;-78
2022/07/05 02:35:33;;;;;;;7.13;3.97;;;;;12.20;101648.00;;;;10460834;28;20213;-78
2022/07/05 02:40:36;;;;;;;4.63;4.10;;;;;12.20;101643.00;;;;10460116;28;20232;-77
2022/07/05 02:45:40;;;;;;;4.87;4.33;;;;;12.20;101645.00;;;;10443640;28;20576;-77
2022/07/05 02:50:42;;;;;;;8.40;4.57;;;;;12.20;101642.00;;;;10476280;28;20407;-78
2022/07/05 02:55:45;;;;;;;12.93;5.20;;;;;12.20;101651.00;;;;10444144;28;20221;-77
2022/07/05 03:00:48;;;;;;;8.87;5.60;;;;;12.10;101655.00;;;;10443248;28;20221;-77
2022/07/05 03:05:53;;;;;;;8.57;4.77;;;;;12.10;101656.00;;;;10444141;28;20713;-77
2022/07/05 03:10:57;;;;;;;7.83;4.73;;;;;12.20;101660.00;;;;10444405;28;20660;-78
2022/07/05 03:15:59;;;;;;;12.00;4.73;;;;;12.10;101656.00;;;;10443412;28;20338;-78
2022/07/05 03:21:02;;;;;;;6.43;4.50;;;;;12.00;101674.00;;;;10459922;28;20243;-77
2022/07/05 03:26:07;;;;;;;6.43;5.10;;;;;12.00;101665.00;;;;10459892;28;20316;-77
2022/07/05 03:31:10;;;;;;;6.50;3.97;;;;;11.90;101670.00;;;;10439620;28;20610;-77
2022/07/05 03:36:15;;;;;;;5.13;4.27;;;;;11.90;101678.00;;;;10401318;28;20218;-78
2022/07/05 03:41:19;;;;;;;8.73;4.37;;;;;11.80;101681.00;;;;10417697;28;20202;-76
2022/07/05 03:46:22;;;;;;;7.03;4.37;;;;;11.90;101682.00;;;;10432329;28;20339;-77
2022/07/05 03:51:25;;;;;;;8.10;4.07;;;;;11.90;101677.00;;;;10416016;28;20251;-78
2022/07/05 03:56:30;;;;;;;5.20;3.73;;;;;11.90;101690.00;;;;10438354;28;20209;-77
2022/07/05 04:01:36;;;;;;;6.37;3.83;;;;;12.00;101688.00;;;;10457075;28;20233;-78
2022/07/05 04:06:40;;;;;;;5.93;5.17;;;;;12.00;101687.00;;;;10449518;28;20201;-77
2022/07/05 04:11:42;;;;;;;7.47;4.97;;;;;12.10;101696.00;;;;10448673;28;20429;-77
2022/07/05 04:16:44;;;;;;;6.53;4.73;;;;;12.20;101704.00;;;;10432226;28;20290;-77
2022/07/05 04:21:46;;;;;;;6.77;5.10;;;;;12.40;101701.00;;;;10464128;28;20201;-77
2022/07/05 04:26:48;;;;;;;10.90;5.50;;;;;12.70;101702.00;;;;10465336;28;20209;-77
2022/07/05 04:31:50;;;;;;;10.40;6.80;;;;;13.00;101693.00;;;;10464192;28;20198;-77
2022/07/05 04:36:53;;;;;;;9.70;5.47;;;;;13.20;101704.00;;;;10439491;28;20222;-77
2022/07/05 04:41:55;;;;;;;10.40;6.43;;;;;13.50;101700.00;;;;10437768;28;20202;-78
2022/07/05 04:46:57;;;;;;;10.90;5.83;;;;;13.70;101706.00;;;;10438101;28;20198;-77
2022/07/05 04:52:00;;;;;;;10.53;6.63;;;;;13.90;101701.00;;;;10420175;28;20228;-78
2022/07/05 04:57:03;;;;;;;8.80;6.33;;;;;14.20;101701.00;;;;10422915;28;20727;-77
2022/07/05 05:02:05;;;;;;;14.70;6.20;;;;;14.60;101711.00;;;;10440537;28;20285;-77
2022/07/05 05:07:07;;;;;;;7.80;5.97;;;;;15.00;101699.00;;;;10405505;28;20212;-77
2022/07/05 05:12:09;;;;;;;12.00;7.27;;;;;15.60;101701.00;;;;10421198;28;20203;-78
2022/07/05 05:17:11;;;;;;;9.03;6.23;;;;;16.10;101701.00;;;;10418847;28;20218;-75
2022/07/05 05:22:13;;;;;;;10.57;6.10;;;;;16.60;101704.00;;;;10433829;28;20252;-78
2022/07/05 05:27:15;;;;;;;9.77;6.32;;;;;17.10;101709.00;;;;10441813;28;20196;-78
2022/07/05 05:32:17;;;;;;;10.30;6.43;;;;;17.50;101708.00;;;;10477872;28;20298;-76
2022/07/05 05:37:19;;;;;;;10.13;6.63;;;;;17.90;101720.00;;;;10458379;28;20205;-76
2022/07/05 05:42:21;;;;;;;10.68;5.47;;;;;18.60;101723.00;;;;10458562;28;20225;-76
2022/07/05 05:47:23;;;;;;;7.15;4.80;;;;;19.20;101736.00;;;;10458032;28;20209;-76
2022/07/05 05:52:25;;;;;;;8.18;4.88;;;;;19.80;101730.00;;;;10458476;28;20284;-75
2022/07/05 05:57:27;;;;;;;9.77;4.78;;;;;20.30;101726.00;;;;10442480;28;20232;-76
2022/07/05 06:02:29;;;;;;;12.02;4.82;;;;;20.60;101730.00;;;;10462022;28;20252;-76
2022/07/05 06:07:31;;;;;;;5.60;3.83;;;;;21.00;101745.00;;;;10434038;28;20197;-76
2022/07/05 06:12:33;;;;;;;12.05;4.18;;;;;21.30;101753.00;;;;10456950;28;20197;-76
2022/07/05 06:17:36;;;;;;;7.03;3.95;;;;;21.90;101760.00;;;;10416708;28;20229;-77
2022/07/05 06:22:38;;;;;;;6.72;3.72;;;;;22.30;101755.00;;;;10433640;28;20189;-76
2022/07/05 06:27:41;;;;;;;8.20;4.22;;;;;22.40;101760.00;;;;10435708;28;20186;-77
2022/07/05 06:32:44;;;;;;;9.98;4.20;;;;;22.00;101769.00;;;;10463733;28;20213;-76
2022/07/05 06:37:55;;;;;;;12.45;4.93;;;;;22.20;101770.00;;;;10457773;28;20221;-76
2022/07/05 06:42:58;;;;;;;12.65;4.53;;;;;21.80;101770.00;;;;10457764;28;20231;-77
2022/07/05 06:48:09;;;;;;;9.07;3.95;;;;;21.70;101773.00;;;;10474497;28;20193;-77
2022/07/05 06:53:14;;;;;;;7.22;4.10;;;;;22.10;101783.00;;;;10441579;28;20194;-76
2022/07/05 06:58:16;;;;;;;7.10;3.45;;;;;22.60;101781.00;;;;10457448;28;20247;-77
2022/07/05 07:03:18;;;;;;;5.35;3.35;;;;;22.20;101780.00;;;;10437798;28;20605;-76
2022/07/05 07:14:01;;;;;;;4.63;2.70;;;;;22.40;101802.00;;;;10432132;28;20237;-76
2022/07/05 07:19:03;;;;;;;6.10;3.10;;;;;22.20;101788.00;;;;10415906;28;20221;-76
2022/07/05 07:24:14;;;;;;;9.07;3.50;;;;;22.60;101795.00;;;;10415774;28;20194;-77
2022/07/05 07:29:16;;;;;;;11.57;3.17;;;;;23.30;101800.00;;;;10399660;28;20190;-77
2022/07/05 07:34:18;;;;;;;10.13;3.20;;;;;24.30;101806.00;;;;10432071;28;20277;-77
2022/07/05 07:39:20;;;;;;;6.55;2.92;;;;;25.10;101804.00;;;;10437228;28;20225;-76
2022/07/05 07:44:24;;;;;;;7.82;2.80;;;;;25.90;101806.00;;;;10406704;28;20194;-77
2022/07/05 07:49:26;;;;;;;7.72;2.92;;;;;26.70;101805.00;;;;10423549;28;20202;-77
2022/07/05 07:54:28;;;;;;;5.90;3.13;;;;;27.50;101816.00;;;;10427686;28;20656;-77
2022/07/05 07:59:31;;;;;;;4.78;3.00;;;;;26.80;101805.00;;;;10478666;28;20699;-77
2022/07/05 08:04:32;;;;;;;8.90;3.30;;;;;26.50;101807.00;;;;10433640;28;20260;-77
2022/07/05 08:09:35;;;;;;;6.68;2.70;;;;;26.90;101808.00;;;;10406024;28;20209;-77
2022/07/05 08:14:37;;;;;;;7.55;2.72;;;;;26.60;101804.00;;;;10437911;28;20189;-77
2022/07/05 08:24:59;;;;;;;6.57;2.97;;;;;27.60;101794.00;;;;10437704;28;20221;-77
2022/07/05 08:30:01;;;;;;;8.52;2.65;;;;;27.50;101800.00;;;;10421548;28;20186;-77
2022/07/05 08:35:04;;;;;;;8.80;3.10;;;;;28.20;101788.00;;;;10420991;28;20296;-77
2022/07/05 08:40:07;;;;;;;9.05;2.92;;;;;29.30;101787.00;;;;10470590;28;20201;-77
2022/07/05 08:45:10;;;;;;;6.72;3.38;;;;;28.80;101789.00;;;;10478528;28;20193;-77
2022/07/05 08:50:15;;;;;;;7.00;2.75;;;;;29.60;101790.00;;;;10478096;28;20185;-77
2022/07/05 08:55:17;;;;;;;10.18;3.58;;;;;29.30;101790.00;;;;10432687;28;20608;-77
2022/07/05 09:00:19;;;;;;;5.43;2.22;;;;;29.90;101794.00;;;;10436526;28;20703;-77
2022/07/05 09:05:22;;;;;;;7.72;2.33;;;;;30.30;101800.00;;;;10455761;28;20194;-77
2022/07/05 09:10:26;;;;;;;5.68;1.98;;;;;31.40;101806.00;;;;10461145;28;20235;-77
2022/07/05 09:15:28;;;;;;;6.80;2.15;;;;;30.90;101803.00;;;;10460676;28;20692;-77
2022/07/05 09:20:30;;;;;;;6.47;2.72;;;;;29.10;101787.00;;;;10477727;28;20189;-77
2022/07/05 09:25:32;;;;;;;5.40;2.30;;;;;30.50;101796.00;;;;10477128;28;20197;-77
2022/07/05 09:30:38;;;;;;;8.45;2.25;;;;;29.90;101793.00;;;;10477568;28;20212;-77
2022/07/05 09:35:43;;;;;;;6.00;2.10;;;;;31.00;101800.00;;;;10460430;28;20259;-77
2022/07/05 09:40:53;;;;;;;5.32;2.20;;;;;31.40;101789.00;;;;10475917;28;20246;-77
2022/07/05 09:46:03;;;;;;;4.70;2.10;;;;;28.70;101803.00;;;;10459073;28;20688;-78
2022/07/05 09:51:08;;;;;;;10.35;2.85;;;;;27.50;101788.00;;;;10475677;28;20189;-77
2022/07/05 09:56:42;;;;;;;6.07;2.70;;;;;27.90;101799.00;;;;10452069;28;20218;-77
2022/07/05 10:01:44;;;;;;;6.68;2.70;;;;;28.90;101786.00;;;;10433282;28;20241;-77
2022/07/05 10:06:47;;;;;;;6.32;2.70;;;;;29.80;101782.00;;;;10416643;28;20194;-77
2022/07/05 10:11:50;;;;;;;4.28;2.40;;;;;30.30;101781.00;;;;10417221;28;20632;-77
2022/07/05 10:16:59;;;;;;;7.05;2.83;;;;;31.50;101786.00;;;;10416903;28;20218;-76
2022/07/05 10:22:02;;;;;;;5.45;2.92;;;;;30.40;101803.00;;;;10416861;28;20712;-77
2022/07/05 10:27:22;;;;;;;7.03;2.20;;;;;29.50;101799.00;;;;10435490;28;20825;-76
2022/07/05 10:32:27;;;;;;;4.85;2.08;;;;;29.50;101800.00;;;;10415370;28;20472;-77
2022/07/05 10:37:31;;;;;;;5.82;1.85;;;;;28.50;101797.00;;;;10458417;28;20231;-77
2022/07/05 10:42:47;;;;;;;5.10;2.90;;;;;28.30;101786.00;;;;10441834;28;20213;-77
2022/07/05 10:48:11;;;;;;;7.70;2.50;;;;;29.10;101797.00;;;;10456692;28;20201;-77
2022/07/05 10:53:14;;;;;;;5.72;2.78;;;;;30.20;101791.00;;;;10457064;28;20197;-77
2022/07/05 10:58:16;;;;;;;5.50;2.22;;;;;29.10;101788.00;;;;10456925;28;20221;-76
2022/07/05 11:03:36;;;;;;;3.88;2.33;;;;;30.00;101793.00;;;;10422774;28;20221;-76
2022/07/05 11:08:57;;;;;;;5.85;3.10;;;;;29.00;101788.00;;;;10456451;28;20193;-76
2022/07/05 11:14:01;;;;;;;7.15;2.80;;;;;27.80;101792.00;;;;10461665;28;20204;-77
2022/07/05 11:19:16;;;;;;;6.78;3.13;;;;;27.60;101777.00;;;;10499049;28;20296;-77
2022/07/05 11:24:22;;;;;;;4.55;2.40;;;;;28.40;101789.00;;;;10499767;28;20412;-76
2022/07/05 11:29:49;;;;;;;8.25;1.83;;;;;31.00;101778.00;;;;10464400;28;20667;-77
2022/07/05 11:34:53;;;;;;;6.45;1.88;;;;;31.90;101782.00;;;;10464835;28;20291;-77
2022/07/05 11:40:10;;;;;;;3.40;1.70;;;;;32.70;101771.00;;;;10448412;28;20721;-77
2022/07/05 11:45:13;;;;;;;4.03;1.77;;;;;33.30;101787.00;;;;10463546;28;20278;-77
2022/07/05 11:50:15;;;;;;;4.75;1.90;;;;;33.50;101768.00;;;;10463679;28;20896;-77
2022/07/05 11:55:18;;;;;;;2.80;1.52;;;;;30.40;101785.00;;;;10447019;28;20254;-77
2022/07/05 12:00:32;;;;;;;3.75;1.80;;;;;29.50;101767.00;;;;10479613;28;20699;-77
2022/07/05 12:05:34;;;;;;;2.75;1.60;;;;;28.00;101782.00;;;;10477683;28;20193;-77
2022/07/05 12:16:17;;;;;;;4.65;1.98;;;;;26.80;101782.00;;;;10497138;28;20719;-76
2022/07/05 12:21:22;;;;;;;6.75;2.45;;;;;25.90;101780.00;;;;10438140;28;20202;-76
2022/07/05 12:26:24;;;;;;;4.88;2.70;;;;;25.30;101767.00;;;;10471798;28;20212;-76
2022/07/05 12:31:25;;;;;;;4.85;2.53;;;;;26.20;101764.00;;;;10456660;28;20247;-76
2022/07/05 12:36:28;;;;;;;5.35;2.63;;;;;27.80;101764.00;;;;10461396;28;20213;-76
2022/07/05 12:41:30;;;;;;;5.18;2.55;;;;;27.00;101775.00;;;;10495771;28;20872;-76
2022/07/05 12:46:37;;;;;;;8.55;2.55;;;;;26.50;101782.00;;;;10477580;28;20193;-76
2022/07/05 12:51:45;;;;;;;8.20;2.47;;;;;27.80;101784.00;;;;10461243;28;20792;-76
2022/07/05 13:02:39;;;;;;;2.78;1.70;;;;;28.90;101763.00;;;;10477557;28;20345;-76
2022/07/05 13:07:43;;;;;;;4.00;1.80;;;;;29.20;101773.00;;;;10460554;28;20266;-77
2022/07/05 13:12:48;;;;;;;4.32;1.60;;;;;30.10;101783.00;;;;10460744;28;20812;-77
2022/07/05 13:17:50;;;;;;;9.35;1.50;;;;;30.50;101786.00;;;;10494392;28;20263;-77
2022/07/05 13:22:52;;;;;;;4.38;1.48;;;;;30.10;101790.00;;;;10458626;28;20378;-76
2022/07/05 13:27:55;;;;;;;4.38;1.40;;;;;29.10;101775.00;;;;10475499;28;20707;-77
2022/07/05 13:32:57;;;;;;;3.95;1.45;;;;;28.70;101799.00;;;;10442583;28;20726;-77
2022/07/05 13:37:59;;;;;;;2.95;1.10;;;;;26.10;101798.00;;;;10475618;28;20296;-77
2022/07/05 13:43:01;;;;;;;4.13;1.63;;;;;26.10;101807.00;;;;10442733;28;20202;-76
2022/07/05 13:48:04;;;;;;;4.90;1.27;;;;;26.10;101807.00;;;;10458575;28;20197;-76
2022/07/05 13:53:06;;;;;;;3.20;1.30;;;;;26.50;101801.00;;;;10474656;28;20198;-76
2022/07/05 13:58:08;;;;;;;3.15;1.17;;;;;26.30;101805.00;;;;10480156;28;20275;-76
2022/07/05 14:03:10;;;;;;;4.57;1.50;;;;;26.30;101813.00;;;;10466815;28;20200;-76
2022/07/05 14:08:12;;;;;;;1.50;1.20;;;;;25.10;101805.00;;;;10474578;28;20193;-76
2022/07/05 14:13:14;;;;;;;3.03;1.20;;;;;24.70;101809.00;;;;10458232;28;20194;-77
2022/07/05 14:18:19;;;;;;;2.10;1.05;;;;;24.70;101818.00;;;;10474253;28;20929;-77
2022/07/05 14:23:21;;;;;;;2.60;1.27;;;;;26.80;101797.00;;;;10492428;28;20194;-76
2022/07/05 14:28:23;;;;;;;3.13;1.20;;;;;25.70;101809.00;;;;10457171;28;20197;-76
2022/07/05 14:33:25;;;;;;;2.28;1.00;;;;;24.60;101813.00;;;;10440636;28;20210;-76
2022/07/05 14:38:27;;;;;;;5.40;1.10;;;;;30.50;101811.00;;;;10457308;28;20217;-77
2022/07/05 14:43:29;;;;;;;6.68;1.42;;;;;32.40;101822.00;;;;10457871;28;20185;-76
2022/07/05 14:48:31;;;;;;;2.38;1.25;;;;;33.50;101825.00;;;;10440208;28;20213;-76
2022/07/05 14:53:33;;;;;;;1.13;0.82;;;;;29.90;101840.00;;;;10456521;28;20235;-76
2022/07/05 14:58:35;;;;;;;2.58;1.00;;;;;24.70;101837.00;;;;10457229;28;20244;-77
2022/07/05 15:03:39;;;;;;;4.55;1.00;;;;;23.30;101836.00;;;;10449223;28;20788;-77
2022/07/05 15:08:41;;;;;;;5.43;1.10;;;;;22.70;101840.00;;;;10431419;28;20202;-77
2022/07/05 15:13:43;;;;;;;1.27;0.90;;;;;22.70;101838.00;;;;10467429;28;20227;-77
2022/07/05 15:18:45;;;;;;;3.42;1.40;;;;;23.60;101828.00;;;;10456444;28;20224;-76
2022/07/05 15:23:47;;;;;;;7.07;1.23;;;;;29.10;101820.00;;;;10472951;28;20192;-76
2022/07/05 15:29:10;;;;;;;2.95;1.10;;;;;29.00;101823.00;;;;10442065;28;20225;-76
2022/07/05 15:34:12;;;;;;;1.90;0.90;;;;;32.90;101819.00;;;;10471621;28;20205;-77
2022/07/05 15:39:14;;;;;;;1.15;1.00;;;;;30.70;101821.00;;;;10455667;28;20252;-76
2022/07/05 15:44:16;;;;;;;4.47;1.05;;;;;26.30;101847.00;;;;10439471;28;21072;-76
2022/07/05 15:49:18;;;;;;;1.58;0.85;;;;;24.70;101835.00;;;;10471921;28;20225;-76
2022/07/05 15:54:20;;;;;;;2.58;1.17;;;;;24.50;101835.00;;;;10472078;28;20281;-76
2022/07/05 15:59:22;;;;;;;4.18;1.00;;;;;24.60;101837.00;;;;10457677;28;20282;-77
2022/07/05 16:04:28;;;;;;;5.07;1.27;;;;;25.00;101837.00;;;;10434553;28;20260;-76
2022/07/05 16:09:31;;;;;;;2.40;0.73;;;;;24.50;101842.00;;;;10427869;28;20206;-76
2022/07/05 16:14:33;;;;;;;0.68;0.68;;;;;23.70;101844.00;;;;10462051;28;20246;-76
2022/07/05 16:19:35;;;;;;;3.08;0.85;;;;;23.40;101845.00;;;;10462127;28;20232;-76
2022/07/05 16:24:37;;;;;;;0.98;0.77;;;;;23.20;101858.00;;;;10462048;28;20268;-76
2022/07/05 16:29:39;;;;;;;1.55;0.90;;;;;22.70;101865.00;;;;10444451;28;20289;-76
2022/07/05 16:34:41;;;;;;;2.63;0.80;;;;;22.30;101863.00;;;;10461708;28;20201;-76
2022/07/05 16:39:44;;;;;;;1.75;0.90;;;;;22.20;101852.00;;;;10460858;28;20217;-76
2022/07/05 16:44:46;;;;;;;1.70;0.90;;;;;22.10;101861.00;;;;10461854;28;20196;-76
2022/07/05 16:49:48;;;;;;;1.58;1.10;;;;;21.90;101870.00;;;;10478319;28;20812;-76
2022/07/05 16:54:50;;;;;;;1.98;1.05;;;;;21.50;101860.00;;;;10434809;28;20546;-76
2022/07/05 16:59:52;;;;;;;1.58;1.45;;;;;21.30;101865.00;;;;10435895;28;20228;-76
2022/07/05 17:04:54;;;;;;;1.95;0.82;;;;;21.00;101870.00;;;;10452401;28;20189;-77
2022/07/05 17:09:56;;;;;;;1.45;0.82;;;;;20.90;101877.00;;;;10459831;28;20277;-76
2022/07/05 17:14:58;;;;;;;2.45;1.00;;;;;20.80;101882.00;;;;10443926;28;20189;-76
2022/07/05 17:20:01;;;;;;;1.00;0.90;;;;;20.90;101892.00;;;;10476326;28;20222;-76
2022/07/05 17:25:03;;;;;;;1.92;1.00;;;;;20.70;101891.00;;;;10426853;28;20196;-76
2022/07/05 17:30:06;;;;;;;2.15;1.00;;;;;20.60;101891.00;;;;10460525;28;20307;-76
2022/07/05 17:35:08;;;;;;;3.38;1.05;;;;;20.50;101902.00;;;;10430259;28;20198;-76
2022/07/05 17:40:10;;;;;;;2.15;1.10;;;;;20.30;101910.00;;;;10434998;28;20210;-76
2022/07/05 17:45:12;;;;;;;2.60;0.85;;;;;20.10;101920.00;;;;10429539;28;20243;-76
2022/07/05 17:50:14;;;;;;;2.90;0.90;;;;;20.10;101925.00;;;;10460035;28;20204;-76
2022/07/05 17:55:37;;;;;;;1.13;0.80;;;;;19.90;101923.00;;;;10430990;28;20217;-76
2022/07/05 18:00:39;;;;;;;3.80;1.20;;;;;19.60;101921.00;;;;10433591;28;20260;-76
2022/07/05 18:05:41;;;;;;;1.38;1.02;;;;;19.60;101932.00;;;;10433529;28;20202;-76
2022/07/05 18:10:44;;;;;;;3.22;0.93;;;;;19.40;101938.00;;;;10417676;28;20190;-76
2022/07/05 18:15:46;;;;;;;3.40;1.08;;;;;19.30;101935.00;;;;10417289;28;20273;-76
2022/07/05 18:20:48;;;;;;;3.47;1.50;;;;;19.20;101914.00;;;;10416552;28;20214;-76
2022/07/05 18:25:50;;;;;;;3.60;1.15;;;;;19.10;101934.00;;;;10433472;28;20198;-77
2022/07/05 18:30:52;;;;;;;2.15;1.20;;;;;19.10;101939.00;;;;10447353;28;20215;-76
2022/07/05 18:35:54;;;;;;;2.75;1.08;;;;;18.90;101948.00;;;;10457848;28;20206;-76
2022/07/05 18:40:56;;;;;;;2.33;0.88;;;;;18.80;101943.00;;;;10440431;28;20797;-76
2022/07/05 18:46:00;;;;;;;3.38;1.30;;;;;18.70;101951.00;;;;10490780;28;20738;-77
2022/07/05 18:51:03;;;;;;;2.88;1.30;;;;;18.60;101965.00;;;;10490134;28;20563;-76
2022/07/05 18:56:05;;;;;;;3.50;1.02;;;;;18.50;101965.00;;;;10474322;28;20200;-77
2022/07/05 19:01:25;;;;;;;3.53;1.30;;;;;18.40;101970.00;;;;10440183;28;20225;-77
2022/07/05 19:17:09;;;;;;;2.33;0.90;;;;;17.90;101978.00;;;;10490286;28;20227;-77
2022/07/05 19:22:11;;;;;;;2.67;1.40;;;;;18.00;101983.00;;;;10472700;28;20426;-77
2022/07/05 19:27:13;;;;;;;2.08;1.17;;;;;17.80;101982.00;;;;10439385;28;20759;-76
2022/07/05 19:32:15;;;;;;;2.13;1.00;;;;;17.70;101982.00;;;;10456012;28;20213;-77
2022/07/05 19:37:17;;;;;;;4.68;1.65;;;;;17.50;101991.00;;;;10481680;28;20575;-77
2022/07/05 19:42:19;;;;;;;4.47;1.40;;;;;17.20;101989.00;;;;10481991;28;20683;-78
2022/07/05 19:47:21;;;;;;;3.72;1.48;;;;;16.90;101993.00;;;;10423800;28;20201;-78
2022/07/05 19:52:23;;;;;;;3.55;1.38;;;;;16.70;102006.00;;;;10439788;28;20195;-77
2022/07/05 19:57:25;;;;;;;5.72;1.48;;;;;16.50;102014.00;;;;10445273;28;20218;-78
2022/07/05 20:02:28;;;;;;;3.30;2.15;;;;;16.30;102012.00;;;;10478538;28;20197;-77
2022/07/05 20:07:30;;;;;;;4.75;1.88;;;;;16.20;102021.00;;;;10449810;28;20201;-77
2022/07/05 20:12:32;;;;;;;2.70;1.60;;;;;16.00;102023.00;;;;10465860;28;20185;-77
2022/07/05 20:17:34;;;;;;;3.30;1.67;;;;;15.80;102034.00;;;;10465190;28;20707;-78
2022/07/05 20:22:36;;;;;;;3.23;1.47;;;;;15.70;102032.00;;;;10464695;28;20198;-77
2022/07/05 20:27:38;;;;;;;1.67;1.57;;;;;15.50;102037.00;;;;10494122;28;20229;-78
2022/07/05 20:32:40;;;;;;;4.43;2.00;;;;;15.30;102034.00;;;;10447221;28;20263;-77
2022/07/05 20:37:42;;;;;;;6.03;1.73;;;;;15.10;102045.00;;;;10447178;28;20275;-77
2022/07/05 20:42:44;;;;;;;3.63;1.80;;;;;15.00;102044.00;;;;10464526;28;20202;-78
2022/07/05 20:47:48;;;;;;;5.40;1.90;;;;;14.90;102052.00;;;;10481125;28;20219;-76
2022/07/05 20:52:51;;;;;;;4.00;1.80;;;;;14.90;102052.00;;;;10463289;28;20708;-78
2022/07/05 20:57:53;;;;;;;4.03;1.70;;;;;14.80;102066.00;;;;10463874;28;20752;-77
2022/07/05 21:02:55;;;;;;;2.80;1.63;;;;;14.70;102070.00;;;;10431106;28;20267;-78
2022/07/05 21:07:57;;;;;;;7.37;2.10;;;;;14.60;102072.00;;;;10446262;28;20595;-77
2022/07/05 21:12:59;;;;;;;4.27;1.90;;;;;14.50;102080.00;;;;10462400;28;20666;-77
2022/07/05 21:18:01;;;;;;;4.70;1.63;;;;;14.30;102082.00;;;;10462466;28;20221;-78
2022/07/05 21:23:06;;;;;;;3.93;1.90;;;;;14.20;102093.00;;;;10479282;28;20248;-78
2022/07/05 21:28:08;;;;;;;3.50;1.83;;;;;14.10;102097.00;;;;10445882;28;20288;-77
2022/07/05 21:33:10;;;;;;;5.97;2.00;;;;;14.00;102097.00;;;;10478900;28;20784;-77
2022/07/05 21:38:12;;;;;;;2.87;1.87;;;;;13.90;102109.00;;;;10477606;28;20316;-77
2022/07/05 21:43:14;;;;;;;4.77;1.93;;;;;13.90;102104.00;;;;10476804;28;20213;-77
2022/07/05 21:48:16;;;;;;;5.83;2.13;;;;;13.90;102110.00;;;;10449752;28;20298;-77
2022/07/05 21:53:19;;;;;;;9.70;2.40;;;;;13.70;102107.00;;;;10454554;28;20269;-77
2022/07/05 21:58:21;;;;;;;5.17;2.37;;;;;13.50;102106.00;;;;10459053;28;20271;-77
2022/07/05 22:04:24;;;;;;;9.53;2.70;;;;;13.40;102113.00;;;;10426642;28;20672;-77
2022/07/05 22:08:55;;;;;;;3.70;2.17;;;;;13.40;102114.00;;;;10463481;28;20240;-77
2022/07/05 22:13:57;;;;;;;5.13;2.57;;;;;13.40;102120.00;;;;10443175;28;20394;-77
2022/07/05 22:18:59;;;;;;;4.80;2.27;;;;;13.30;102129.00;;;;10443222;28;20848;-77
2022/07/05 22:24:01;;;;;;;7.00;2.63;;;;;13.20;102131.00;;;;10426449;28;20648;-77
2022/07/05 22:29:03;;;;;;;4.97;2.50;;;;;13.10;102134.00;;;;10476267;28;20197;-77
2022/07/05 22:34:05;;;;;;;3.00;2.33;;;;;12.90;102136.00;;;;10472366;28;20771;-77
2022/07/05 22:39:09;;;;;;;7.30;2.33;;;;;12.80;102127.00;;;;10458847;28;20729;-77
2022/07/05 22:44:11;;;;;;;10.67;2.93;;;;;12.80;102136.00;;;;10458130;28;20255;-77
2022/07/05 22:49:14;;;;;;;7.37;3.23;;;;;12.70;102117.00;;;;10475462;28;20186;-77
2022/07/05 22:54:16;;;;;;;4.43;3.27;;;;;12.60;102120.00;;;;10490576;28;20189;-77
2022/07/05 22:59:17;;;;;;;4.47;2.63;;;;;12.70;102127.00;;;;10441182;28;20259;-77
2022/07/05 23:04:19;;;;;;;9.67;3.00;;;;;12.70;102136.00;;;;10441238;28;20232;-77
2022/07/05 23:09:21;;;;;;;4.33;2.60;;;;;12.60;102134.00;;;;10457325;28;20844;-76
2022/07/05 23:14:23;;;;;;;6.33;2.80;;;;;12.50;102136.00;;;;10474939;28;20235;-77
2022/07/05 23:19:25;;;;;;;10.83;2.97;;;;;12.40;102127.00;;;;10457564;28;20228;-77
2022/07/05 23:29:48;;;;;;;6.17;3.10;;;;;12.30;102133.00;;;;10474403;28;20637;-77
2022/07/05 23:34:50;;;;;;;3.30;2.80;;;;;12.20;102133.00;;;;10457525;28;20202;-77
2022/07/05 23:39:52;;;;;;;3.83;2.83;;;;;12.20;102128.00;;;;10458329;28;20304;-77
2022/07/05 23:44:54;;;;;;;6.80;3.10;;;;;12.30;102130.00;;;;10457876;28;20533;-77
2022/07/05 23:49:56;;;;;;;21.43;3.97;;;;;12.30;102136.00;;;;10475061;28;20259;-77
2022/07/05 23:54:58;;;;;;;4.10;2.87;;;;;12.30;102121.00;;;;10463120;28;20198;-77
